Calumet — WDE3568 — position and weather

sailwx.info

Track history (hours):
 
Tides and Currents Weather Stations Pressure Air Temp Water Temp Dewpoint Dewpoint Depression Visibility Wind Speed Wind Dir Waves Ship Positions

Calumet

Owner: Grand River Navigation Company, Traverse City, MI. More information available from US FCC via Universal Licensing System and Coast Guard Vessel Documentation Center.

Last reported at 2018-May-24 00:00 UTC. Time now 2018-May-24 00:38 UTC.
Position N 41°42' W 082°18'.

Length 192 m; draft 25.1 m.

Type: Cargo ship. MMSI: 367132630.

Wind from 240 at 12 knots

Barometer 1026.0 mb
Air temperature 17.7 ° C

Date/timePositionNaut miles runAvg speedWind from/ knotsBaromVisibWave heightAir tempDewpointWater temp
2018-May-24 00:00N 41°42' W 082°18'90 6.9 240 / 121026.0 17.7
2018-May-23 11:00N 43°12' W 082°24'14712.0 250 / 51023.3 9.9
2018-May-22 22:45N 45°31' W 083°31'312.1
2018-May-22 22:29N 45°33' W 083°34'39 4.9
2018-May-22 14:23N 45°59' W 084°17'0 0.0
2018-May-22 13:03N 45°59' W 084°17'0 0.1
2018-May-22 13:00N 45°59' W 084°17'0 0.0
2018-May-22 12:30N 45°59' W 084°17'0 0.0
2018-May-22 12:00N 45°59' W 084°17'0 0.0
2018-May-22 11:27N 45°59' W 084°17'0 0.0
2018-May-22 11:00N 45°59' W 084°17'0 0.0
2018-May-22 10:30N 45°59' W 084°17'0 0.0
2018-May-22 09:59N 45°59' W 084°17'0 0.0
2018-May-22 09:30N 45°59' W 084°17'0 0.0
2018-May-22 09:00N 45°59' W 084°17'0 0.0
2018-May-22 08:22N 45°59' W 084°17'0 0.0
2018-May-22 06:44N 45°59' W 084°17'0 0.1
2018-May-22 06:29N 45°59' W 084°17'2510.4
2018-May-22 04:07N 45°41' W 083°52'212.8
2018-May-22 04:00N 45°40' W 083°51'612.7
2018-May-22 03:30N 45°36' W 083°44'612.6
2018-May-22 03:00N 45°31' W 083°38'612.8
2018-May-22 02:30N 45°27' W 083°31'612.4
2018-May-22 02:00N 45°22' W 083°25'9712.1
2018-May-21 18:00N 43°54' W 082°30'0 0.0 1023.7 5.4 10.5
2018-May-21 00:00N 43°54' W 082°30'24 8.1 320 / 51027.7 5.5
2018-May-20 21:00N 44°18' W 082°36'45 1.7 290 / 41027.7 8.3
2018-May-19 18:00N 45°00' W 083°00'8111.6 090 / 141012.5 0.3 4.4
2018-May-19 11:00N 43°42' W 082°30'2412.2 130 / 151017.6 7.2
2018-May-19 09:00N 43°18' W 082°24'98 4.1 110 / 101019.2 9.9
2018-May-18 09:00N 41°48' W 081°30'3612.1 060 / 241024.3 11.1
2018-May-18 06:00N 41°42' W 082°18'169 8.9 040 / 141019.6 5.4 10.5
2018-May-17 11:00N 44°30' W 082°48'5911.2 030 / 161020.9 6.1
2018-May-17 05:41N 45°23' W 083°26'312.0
2018-May-17 05:27N 45°24' W 083°30'612.2
2018-May-17 05:00N 45°25' W 083°38'611.3
2018-May-17 04:30N 45°25' W 083°46'1 2.2
2018-May-17 04:00N 45°25' W 083°47'0 0.0
2018-May-17 03:30N 45°25' W 083°47'0 0.1
2018-May-17 03:00N 45°25' W 083°47'0 0.0
2018-May-17 02:30N 45°25' W 083°47'0 0.0
2018-May-17 02:00N 45°25' W 083°47'0 0.0
2018-May-17 01:30N 45°25' W 083°47'0 0.0
2018-May-17 01:00N 45°25' W 083°47'0 0.0
2018-May-17 00:30N 45°25' W 083°47'0 0.0
2018-May-17 00:00N 45°25' W 083°47'0 0.0
2018-May-16 23:30N 45°25' W 083°47'0 0.0
2018-May-16 23:00N 45°25' W 083°47'0 0.0
2018-May-16 22:30N 45°25' W 083°47'0 0.0
2018-May-16 22:00N 45°25' W 083°47'0 0.0
2018-May-16 21:30N 45°25' W 083°47'0 0.1
2018-May-16 21:00N 45°25' W 083°47'0 0.0
2018-May-16 20:30N 45°25' W 083°47'0 0.0
2018-May-16 20:00N 45°25' W 083°47'0 0.0
2018-May-16 19:30N 45°25' W 083°47'0 0.0
2018-May-16 19:00N 45°25' W 083°47'0 0.0
2018-May-16 18:30N 45°25' W 083°47'0 0.6
2018-May-16 18:00N 45°25' W 083°47'1 2.5
2018-May-16 17:30N 45°26' W 083°47'612.4
2018-May-16 17:00N 45°30' W 083°53'2812.2
2018-May-16 14:43N 45°42' W 084°29'312.7
2018-May-16 14:30N 45°44' W 084°33'612.6
2018-May-16 14:00N 45°48' W 084°40'611.2
2018-May-16 13:30N 45°49' W 084°48'612.7
2018-May-16 13:00N 45°49' W 084°57'612.6
2018-May-16 12:30N 45°50' W 085°06'510.8
2018-May-16 12:00N 45°45' W 085°10'612.7
2018-May-16 11:30N 45°40' W 085°15'612.7
2018-May-16 11:00N 45°35' W 085°21'2142.0
2018-May-16 11:00N 45°36' W 085°18'817.3 180 / 121019.2 5.5
2018-May-16 10:30N 45°30' W 085°26'612.6
2018-May-16 10:00N 45°25' W 085°31'7753.4
2018-May-16 10:00N 45°18' W 085°36'1 2.2 220 / 61019.2 8.3
2018-May-16 09:25N 45°19' W 085°38'512.7
2018-May-16 09:00N 45°14' W 085°42'612.6
2018-May-16 08:30N 45°09' W 085°47'20 1.0
2018-May-15 11:39N 45°23' W 086°08'212.3
2018-May-15 11:30N 45°25' W 086°08'612.2
2018-May-15 11:00N 45°31' W 086°06'5 9.9
2018-May-15 10:30N 45°35' W 086°05'712.1
2018-May-15 09:57N 45°42' W 086°01'1412.0
2018-May-15 08:47N 45°55' W 085°53'3 8.0
2018-May-15 08:27N 45°57' W 085°53'1 2.0
2018-May-15 08:00N 45°58' W 085°52'0 0.2
2018-May-15 07:28N 45°58' W 085°52'0 0.0
2018-May-15 06:59N 45°58' W 085°52'0 0.0
2018-May-15 04:42N 45°58' W 085°52'0 0.0
2018-May-15 03:28N 45°58' W 085°52'0 0.0
2018-May-15 03:00N 45°58' W 085°52'0 0.0
2018-May-15 02:30N 45°58' W 085°52'0 0.0
2018-May-15 02:00N 45°58' W 085°52'0 0.0
2018-May-15 01:29N 45°58' W 085°52'0 0.0
2018-May-15 01:00N 45°58' W 085°52'0 0.0
2018-May-15 00:30N 45°58' W 085°52'0 0.0
2018-May-15 00:00N 45°58' W 085°52'0 0.0
2018-May-14 23:30N 45°58' W 085°52'0 0.1
2018-May-14 22:49N 45°58' W 085°52'0 1.1
2018-May-14 22:29N 45°58' W 085°53'1 1.4
2018-May-14 21:54N 45°57' W 085°53'0 0.8
2018-May-14 21:27N 45°57' W 085°53'4 9.9
2018-May-14 21:00N 45°52' W 085°54'712.6
2018-May-14 20:26N 45°46' W 085°58'912.6
2018-May-14 19:43N 45°38' W 086°04'312.7
2018-May-14 19:27N 45°35' W 086°06'10612.5
2018-May-14 11:00N 44°00' W 087°12'2713.6 190 / 141015.9 5.5
2018-May-14 09:00N 43°36' W 087°30'   190 / 111015.9 4.9
Track history (hours):
 
Tides and Currents Weather Stations Pressure Air Temp Water Temp Dewpoint Dewpoint Depression Visibility Wind Speed Wind Dir Waves Ship Positions

Calumet

Owner: Grand River Navigation Company, Traverse City, MI. More information available from US FCC via Universal Licensing System and Coast Guard Vessel Documentation Center.

Last reported at 2018-May-24 00:00 UTC. Time now 2018-May-24 00:38 UTC.
Position N 41°42' W 082°18'.

Length 192 m; draft 25.1 m.

Type: Cargo ship. MMSI: 367132630.

Wind from 240 at 12 knots

Barometer 1026.0 mb
Air temperature 17.7 ° C

Date/timePositionNaut miles runAvg speedWind from/ knotsBaromVisibWave heightAir tempDewpointWater temp
2018-May-24 00:00N 41°42' W 082°18'90 6.9 240 / 121026.0 17.7
2018-May-23 11:00N 43°12' W 082°24'14712.0 250 / 51023.3 9.9
2018-May-22 22:45N 45°31' W 083°31'312.1
2018-May-22 22:29N 45°33' W 083°34'39 4.9
2018-May-22 14:23N 45°59' W 084°17'0 0.0
2018-May-22 13:03N 45°59' W 084°17'0 0.1
2018-May-22 13:00N 45°59' W 084°17'0 0.0
2018-May-22 12:30N 45°59' W 084°17'0 0.0
2018-May-22 12:00N 45°59' W 084°17'0 0.0
2018-May-22 11:27N 45°59' W 084°17'0 0.0
2018-May-22 11:00N 45°59' W 084°17'0 0.0
2018-May-22 10:30N 45°59' W 084°17'0 0.0
2018-May-22 09:59N 45°59' W 084°17'0 0.0
2018-May-22 09:30N 45°59' W 084°17'0 0.0
2018-May-22 09:00N 45°59' W 084°17'0 0.0
2018-May-22 08:22N 45°59' W 084°17'0 0.0
2018-May-22 06:44N 45°59' W 084°17'0 0.1
2018-May-22 06:29N 45°59' W 084°17'2510.4
2018-May-22 04:07N 45°41' W 083°52'212.8
2018-May-22 04:00N 45°40' W 083°51'612.7
2018-May-22 03:30N 45°36' W 083°44'612.6
2018-May-22 03:00N 45°31' W 083°38'612.8
2018-May-22 02:30N 45°27' W 083°31'612.4
2018-May-22 02:00N 45°22' W 083°25'9712.1
2018-May-21 18:00N 43°54' W 082°30'0 0.0 1023.7 5.4 10.5
2018-May-21 00:00N 43°54' W 082°30'24 8.1 320 / 51027.7 5.5
2018-May-20 21:00N 44°18' W 082°36'45 1.7 290 / 41027.7 8.3
2018-May-19 18:00N 45°00' W 083°00'8111.6 090 / 141012.5 0.3 4.4
2018-May-19 11:00N 43°42' W 082°30'2412.2 130 / 151017.6 7.2
2018-May-19 09:00N 43°18' W 082°24'98 4.1 110 / 101019.2 9.9
2018-May-18 09:00N 41°48' W 081°30'3612.1 060 / 241024.3 11.1
2018-May-18 06:00N 41°42' W 082°18'169 8.9 040 / 141019.6 5.4 10.5
2018-May-17 11:00N 44°30' W 082°48'5911.2 030 / 161020.9 6.1
2018-May-17 05:41N 45°23' W 083°26'312.0
2018-May-17 05:27N 45°24' W 083°30'612.2
2018-May-17 05:00N 45°25' W 083°38'611.3
2018-May-17 04:30N 45°25' W 083°46'1 2.2
2018-May-17 04:00N 45°25' W 083°47'0 0.0
2018-May-17 03:30N 45°25' W 083°47'0 0.1
2018-May-17 03:00N 45°25' W 083°47'0 0.0
2018-May-17 02:30N 45°25' W 083°47'0 0.0
2018-May-17 02:00N 45°25' W 083°47'0 0.0
2018-May-17 01:30N 45°25' W 083°47'0 0.0
2018-May-17 01:00N 45°25' W 083°47'0 0.0
2018-May-17 00:30N 45°25' W 083°47'0 0.0
2018-May-17 00:00N 45°25' W 083°47'0 0.0
2018-May-16 23:30N 45°25' W 083°47'0 0.0
2018-May-16 23:00N 45°25' W 083°47'0 0.0
2018-May-16 22:30N 45°25' W 083°47'0 0.0
2018-May-16 22:00N 45°25' W 083°47'0 0.0
2018-May-16 21:30N 45°25' W 083°47'0 0.1
2018-May-16 21:00N 45°25' W 083°47'0 0.0
2018-May-16 20:30N 45°25' W 083°47'0 0.0
2018-May-16 20:00N 45°25' W 083°47'0 0.0
2018-May-16 19:30N 45°25' W 083°47'0 0.0
2018-May-16 19:00N 45°25' W 083°47'0 0.0
2018-May-16 18:30N 45°25' W 083°47'0 0.6
2018-May-16 18:00N 45°25' W 083°47'1 2.5
2018-May-16 17:30N 45°26' W 083°47'612.4
2018-May-16 17:00N 45°30' W 083°53'2812.2
2018-May-16 14:43N 45°42' W 084°29'312.7
2018-May-16 14:30N 45°44' W 084°33'612.6
2018-May-16 14:00N 45°48' W 084°40'611.2
2018-May-16 13:30N 45°49' W 084°48'612.7
2018-May-16 13:00N 45°49' W 084°57'612.6
2018-May-16 12:30N 45°50' W 085°06'510.8
2018-May-16 12:00N 45°45' W 085°10'612.7
2018-May-16 11:30N 45°40' W 085°15'612.7
2018-May-16 11:00N 45°35' W 085°21'2142.0
2018-May-16 11:00N 45°36' W 085°18'817.3 180 / 121019.2 5.5
2018-May-16 10:30N 45°30' W 085°26'612.6
2018-May-16 10:00N 45°25' W 085°31'7753.4
2018-May-16 10:00N 45°18' W 085°36'1 2.2 220 / 61019.2 8.3
2018-May-16 09:25N 45°19' W 085°38'512.7
2018-May-16 09:00N 45°14' W 085°42'612.6
2018-May-16 08:30N 45°09' W 085°47'20 1.0
2018-May-15 11:39N 45°23' W 086°08'212.3
2018-May-15 11:30N 45°25' W 086°08'612.2
2018-May-15 11:00N 45°31' W 086°06'5 9.9
2018-May-15 10:30N 45°35' W 086°05'712.1
2018-May-15 09:57N 45°42' W 086°01'1412.0
2018-May-15 08:47N 45°55' W 085°53'3 8.0
2018-May-15 08:27N 45°57' W 085°53'1 2.0
2018-May-15 08:00N 45°58' W 085°52'0 0.2
2018-May-15 07:28N 45°58' W 085°52'0 0.0
2018-May-15 06:59N 45°58' W 085°52'0 0.0
2018-May-15 04:42N 45°58' W 085°52'0 0.0
2018-May-15 03:28N 45°58' W 085°52'0 0.0
2018-May-15 03:00N 45°58' W 085°52'0 0.0
2018-May-15 02:30N 45°58' W 085°52'0 0.0
2018-May-15 02:00N 45°58' W 085°52'0 0.0
2018-May-15 01:29N 45°58' W 085°52'0 0.0
2018-May-15 01:00N 45°58' W 085°52'0 0.0
2018-May-15 00:30N 45°58' W 085°52'0 0.0
2018-May-15 00:00N 45°58' W 085°52'0 0.0
2018-May-14 23:30N 45°58' W 085°52'0 0.1
2018-May-14 22:49N 45°58' W 085°52'0 1.1
2018-May-14 22:29N 45°58' W 085°53'1 1.4
2018-May-14 21:54N 45°57' W 085°53'0 0.8
2018-May-14 21:27N 45°57' W 085°53'4 9.9
2018-May-14 21:00N 45°52' W 085°54'712.6
2018-May-14 20:26N 45°46' W 085°58'912.6
2018-May-14 19:43N 45°38' W 086°04'312.7
2018-May-14 19:27N 45°35' W 086°06'10612.5
2018-May-14 11:00N 44°00' W 087°12'2713.6 190 / 141015.9 5.5
2018-May-14 09:00N 43°36' W 087°30'   190 / 111015.9 4.9

Dump ship's entire track history